GTRO2: Cimmarron R.,Guthrie, OK

Data processed at Fri Jan 05 2018 23:36


All information presented herein is the property of the government of the United States of America and may be revised or deleted at any time without prior notice.
Dissemination of this information without the expressed written consent of the Public Affairs Office, Tulsa District U.S. Army Corps of Engineers is strictly prohibited.
These data are gathered electronically and, as presented, have not undergone any form of quality control. These data are not guaranteed to be valid or correct.
Go to home page.
Go to station list.

Upstream stations:

Downstream station:
Previous Day
Next Day
Current Day
    
SHEF ID:       GTRO2     Cimarron River near Guthrie, OK
STATION TYPE:  

               PRECIP     STAGE  RIV-FLOW  BAT-LOAD
                   in        ft       cfs      volt
              Ccp-Rev   Ccp-Rev   Ccp-Rev   Ccp-Rev
(US/Central)
01/03 00:00      0.00      6.38       431     12.25
01/03 01:00      0.00      6.39       435     12.25
01/03 02:00      0.00      6.39       435     12.25
01/03 03:00      0.00      6.36       421     12.17
01/03 04:00      0.00      6.36       421     12.17
01/03 05:00      0.00      6.35       417     12.09
01/03 06:00      ----      6.33       407     12.09
01/03 07:00      0.00      6.32       403     12.09
01/03 08:00      0.00      6.31       398     12.01
01/03 09:00      0.00      6.31       398     12.25
01/03 10:00      0.00      6.34       412     13.05
01/03 11:00      0.00      6.36       421     13.13
01/03 12:00      0.00      6.31       398     13.13
01/03 13:00      0.00      6.23       363     13.13
01/03 14:00      0.00      6.15       330     13.13
01/03 15:00      ----      6.12       318      ----
01/03 16:00      ----      6.07       298     13.05
01/03 17:00      0.00      6.05       291     12.81
01/03 18:00      0.00      6.02       279     12.57
01/03 19:00      0.00      6.15       330     12.49
01/03 20:00      0.00      6.21       355     12.41
01/03 21:00      0.00      6.16       334     12.41
01/03 22:00      0.00      6.23       363     12.41
01/03 23:00      0.00      6.23       363     12.41